createdAt,value
2023-05-03T00:00:29.559Z,56.19
2023-05-03T00:01:29.550Z,58.56
2023-05-03T00:02:29.602Z,58.17
2023-05-03T00:03:29.529Z,59.38
2023-05-03T00:04:29.567Z,58.02
2023-05-03T00:05:29.553Z,57.60
2023-05-03T00:06:29.544Z,57.54
2023-05-03T00:07:29.489Z,57.97
2023-05-03T00:08:29.507Z,57.78
2023-05-03T00:09:29.500Z,58.28
2023-05-03T00:10:29.499Z,61.88
2023-05-03T00:11:29.463Z,59.11
2023-05-03T00:12:29.459Z,58.57
2023-05-03T00:13:29.447Z,59.08
2023-05-03T00:14:29.468Z,59.53
2023-05-03T00:15:29.425Z,60.40
2023-05-03T00:16:29.456Z,58.22
2023-05-03T00:17:29.424Z,58.18
2023-05-03T00:18:29.408Z,58.24
2023-05-03T00:19:31.888Z,58.27
2023-05-03T00:20:30.435Z,58.81
2023-05-03T00:21:29.406Z,58.20
2023-05-03T00:22:29.376Z,58.00
2023-05-03T00:23:29.401Z,58.01
2023-05-03T00:24:29.390Z,58.42
2023-05-03T00:25:29.353Z,58.23
2023-05-03T00:26:29.336Z,60.96
2023-05-03T00:27:29.340Z,53.74
2023-05-03T00:28:29.339Z,52.26
2023-05-03T00:29:29.342Z,54.48
2023-05-03T00:30:29.313Z,49.58
2023-05-03T00:31:29.351Z,46.77
2023-05-03T00:32:29.294Z,44.44
2023-05-03T00:33:29.287Z,55.00
2023-05-03T00:34:29.298Z,42.20
2023-05-03T00:35:29.265Z,38.96
2023-05-03T00:36:29.278Z,43.74
2023-05-03T00:37:29.256Z,56.28
2023-05-03T00:38:29.258Z,48.34
2023-05-03T00:39:29.277Z,51.42
2023-05-03T00:40:29.255Z,55.24
2023-05-03T00:41:29.250Z,49.92
2023-05-03T00:42:29.225Z,50.04
2023-05-03T00:43:29.215Z,49.36
2023-05-03T00:44:29.292Z,50.36
2023-05-03T00:45:29.204Z,52.98
2023-05-03T00:46:29.237Z,51.14
2023-05-03T00:47:29.201Z,50.17
2023-05-03T00:48:29.191Z,53.06
2023-05-03T00:49:29.217Z,54.31
2023-05-03T00:50:29.180Z,53.93
2023-05-03T00:51:29.167Z,59.66
2023-05-03T00:52:29.146Z,45.97
2023-05-03T00:53:29.175Z,46.31
2023-05-03T00:54:29.208Z,44.67
2023-05-03T00:55:29.151Z,57.06
2023-05-03T00:56:31.135Z,43.10
2023-05-03T00:57:29.143Z,48.80
2023-05-03T00:58:29.102Z,52.75
2023-05-03T00:59:29.132Z,46.38
2023-05-03T01:00:29.102Z,42.48
2023-05-03T01:01:29.115Z,44.92
2023-05-03T01:02:29.173Z,47.11
2023-05-03T01:03:29.145Z,48.76
2023-05-03T01:04:29.104Z,54.90
2023-05-03T01:05:29.063Z,45.25
2023-05-03T01:06:29.085Z,47.13
2023-05-03T01:07:29.043Z,57.03
2023-05-03T01:08:29.058Z,46.43
2023-05-03T01:09:29.052Z,46.98
2023-05-03T01:10:29.017Z,53.29
2023-05-03T01:11:29.016Z,55.35
2023-05-03T01:12:29.011Z,55.47
2023-05-03T01:13:28.994Z,57.34
2023-05-03T01:14:29.017Z,55.98
2023-05-03T01:15:28.985Z,56.08
2023-05-03T01:16:29.001Z,56.05
2023-05-03T01:17:29.059Z,57.11
2023-05-03T01:18:28.953Z,57.61
2023-05-03T01:19:29.013Z,58.15
2023-05-03T01:20:28.934Z,59.60
2023-05-03T01:21:28.926Z,58.77
2023-05-03T01:22:28.918Z,58.60
2023-05-03T01:23:28.910Z,58.47
2023-05-03T01:24:28.918Z,60.17
2023-05-03T01:25:28.883Z,58.47
2023-05-03T01:26:28.883Z,58.61
2023-05-03T01:27:28.876Z,59.86
2023-05-03T01:28:28.857Z,58.43
2023-05-03T01:29:28.887Z,61.84
2023-05-03T01:30:28.853Z,58.83
2023-05-03T01:31:28.941Z,58.81
2023-05-03T01:32:28.827Z,59.16
2023-05-03T01:33:28.838Z,60.55
2023-05-03T01:34:28.836Z,58.60
2023-05-03T01:35:28.810Z,58.71
2023-05-03T01:36:28.809Z,60.05
2023-05-03T01:37:28.789Z,59.40
2023-05-03T01:38:28.784Z,59.59
2023-05-03T01:39:28.777Z,61.23
2023-05-03T01:40:28.797Z,59.70
2023-05-03T01:41:28.803Z,59.27
2023-05-03T01:42:28.748Z,59.60
2023-05-03T01:43:28.747Z,58.95
2023-05-03T01:44:28.736Z,59.77
2023-05-03T01:45:28.800Z,60.67
2023-05-03T01:46:28.810Z,61.76
2023-05-03T01:47:28.760Z,59.31
2023-05-03T01:48:28.739Z,59.63
2023-05-03T01:49:28.713Z,58.93
2023-05-03T01:50:28.721Z,59.56
2023-05-03T01:51:28.696Z,62.37
2023-05-03T01:52:28.709Z,60.46
2023-05-03T01:53:28.686Z,58.67
2023-05-03T01:54:28.681Z,58.56
2023-05-03T01:55:28.690Z,59.15
2023-05-03T01:56:28.647Z,58.62
2023-05-03T01:57:28.646Z,59.11
2023-05-03T01:58:28.644Z,59.82
2023-05-03T01:59:28.673Z,49.01
2023-05-03T02:00:28.622Z,47.58
2023-05-03T02:01:28.647Z,56.51
2023-05-03T02:02:28.631Z,45.92
2023-05-03T02:03:28.594Z,50.68
2023-05-03T02:04:28.669Z,42.77
2023-05-03T02:05:28.591Z,45.24
2023-05-03T02:06:28.639Z,47.46
2023-05-03T02:07:29.570Z,41.73
2023-05-03T02:08:28.564Z,44.79
2023-05-03T02:09:28.600Z,50.99
2023-05-03T02:10:28.549Z,40.19
2023-05-03T02:11:28.546Z,44.31
2023-05-03T02:12:28.556Z,57.13
2023-05-03T02:13:28.523Z,58.37
2023-05-03T02:14:28.540Z,48.38
2023-05-03T02:15:28.517Z,47.30
2023-05-03T02:16:28.506Z,57.97
2023-05-03T02:17:28.547Z,48.07
2023-05-03T02:18:28.497Z,48.59
2023-05-03T02:19:28.499Z,52.38
2023-05-03T02:20:28.470Z,50.62
2023-05-03T02:21:28.460Z,46.54
2023-05-03T02:22:28.484Z,39.91
2023-05-03T02:23:28.452Z,43.62
2023-05-03T02:24:28.467Z,41.44
2023-05-03T02:25:28.436Z,42.99
2023-05-03T02:26:28.420Z,47.16
2023-05-03T02:27:28.416Z,47.40
2023-05-03T02:28:28.405Z,55.25
2023-05-03T02:29:28.425Z,52.56
2023-05-03T02:30:28.398Z,51.48
2023-05-03T02:31:28.449Z,50.02
2023-05-03T02:32:28.494Z,53.98
2023-05-03T02:33:28.367Z,56.96
2023-05-03T02:34:28.385Z,49.65
2023-05-03T02:35:28.353Z,48.92
2023-05-03T02:36:28.342Z,44.47
2023-05-03T02:37:28.340Z,51.39
2023-05-03T02:38:28.332Z,50.57
2023-05-03T02:39:28.348Z,59.00
2023-05-03T02:40:28.345Z,48.53
2023-05-03T02:41:28.307Z,47.66
2023-05-03T02:42:28.306Z,53.34
2023-05-03T02:43:28.307Z,57.52
2023-05-03T02:44:28.313Z,55.57
2023-05-03T02:45:28.270Z,55.18
2023-05-03T02:46:28.300Z,62.17
2023-05-03T02:47:28.313Z,58.47
2023-05-03T02:48:28.257Z,57.66
2023-05-03T02:49:28.275Z,57.00
2023-05-03T02:50:28.253Z,60.35
2023-05-03T02:51:28.239Z,58.24
2023-05-03T02:52:28.220Z,59.84
2023-05-03T02:53:28.223Z,59.51
2023-05-03T02:54:28.244Z,63.44
2023-05-03T02:55:28.197Z,59.42
2023-05-03T02:56:28.198Z,59.30
2023-05-03T02:57:28.198Z,58.78
2023-05-03T02:58:28.185Z,58.44
2023-05-03T02:59:28.193Z,58.63
2023-05-03T03:00:28.192Z,60.43
2023-05-03T03:01:28.205Z,59.33
2023-05-03T03:02:28.243Z,62.96
2023-05-03T03:03:28.229Z,59.38
2023-05-03T03:04:28.157Z,59.44
2023-05-03T03:05:28.120Z,60.47
2023-05-03T03:06:28.265Z,62.50
2023-05-03T03:07:28.113Z,60.15
2023-05-03T03:08:28.102Z,60.42
2023-05-03T03:09:28.126Z,61.03
2023-05-03T03:10:28.090Z,61.88
2023-05-03T03:11:28.075Z,61.01
2023-05-03T03:12:28.068Z,60.88
2023-05-03T03:13:28.076Z,63.80
2023-05-03T03:14:28.085Z,60.58
2023-05-03T03:15:28.060Z,60.45
2023-05-03T03:16:28.066Z,60.73
2023-05-03T03:17:28.059Z,63.23
2023-05-03T03:18:28.036Z,62.30
2023-05-03T03:19:28.016Z,60.70
2023-05-03T03:20:28.042Z,59.49
2023-05-03T03:21:28.000Z,59.32
2023-05-03T03:22:28.015Z,59.15
2023-05-03T03:23:28.003Z,59.70
2023-05-03T03:24:27.979Z,59.28
2023-05-03T03:25:27.995Z,59.97
2023-05-03T03:26:27.966Z,61.35
2023-05-03T03:27:27.956Z,60.04
2023-05-03T03:28:27.957Z,61.40
2023-05-03T03:29:27.941Z,59.57
2023-05-03T03:30:27.965Z,60.16
2023-05-03T03:31:27.954Z,59.67
2023-05-03T03:32:27.916Z,63.00
2023-05-03T03:33:27.918Z,62.52
2023-05-03T03:34:27.908Z,60.07
2023-05-03T03:35:27.933Z,60.86
2023-05-03T03:36:27.937Z,59.77
2023-05-03T03:37:27.880Z,59.36
2023-05-03T03:38:27.873Z,61.04
2023-05-03T03:39:27.862Z,63.67
2023-05-03T03:40:27.881Z,60.48
2023-05-03T03:41:27.863Z,60.13
2023-05-03T03:42:27.840Z,60.68
2023-05-03T03:43:27.851Z,60.51
2023-05-03T03:44:27.826Z,59.90
2023-05-03T03:45:27.871Z,60.16
2023-05-03T03:46:27.844Z,59.08
2023-05-03T03:47:27.842Z,60.55
2023-05-03T03:48:27.795Z,60.29
2023-05-03T03:49:27.789Z,62.49
2023-05-03T03:50:28.081Z,59.76
2023-05-03T03:51:27.776Z,59.91
2023-05-03T03:52:27.797Z,59.81
2023-05-03T03:53:27.764Z,58.96
2023-05-03T03:54:27.752Z,59.50
2023-05-03T03:55:27.777Z,58.77
2023-05-03T03:56:27.735Z,59.77
2023-05-03T03:57:27.733Z,59.75
2023-05-03T03:58:27.720Z,59.10
2023-05-03T03:59:27.716Z,59.45
2023-05-03T04:00:27.733Z,54.83
2023-05-03T04:01:27.703Z,55.22
2023-05-03T04:02:27.905Z,54.80
2023-05-03T04:03:27.753Z,54.60
2023-05-03T04:04:27.684Z,55.94
2023-05-03T04:05:27.713Z,55.68
2023-05-03T04:06:27.704Z,54.73
2023-05-03T04:07:27.644Z,55.63
2023-05-03T04:08:27.644Z,55.12
2023-05-03T04:09:27.628Z,54.21
2023-05-03T04:10:27.651Z,54.50
2023-05-03T04:11:28.627Z,57.44
2023-05-03T04:12:27.620Z,56.90
2023-05-03T04:13:27.601Z,54.36
2023-05-03T04:14:27.595Z,53.88
2023-05-03T04:15:27.644Z,54.19
2023-05-03T04:16:27.610Z,57.66
2023-05-03T04:17:27.606Z,53.09
2023-05-03T04:18:27.567Z,55.96
2023-05-03T04:19:27.555Z,56.00
2023-05-03T04:20:27.574Z,56.11
2023-05-03T04:21:27.560Z,55.92
2023-05-03T04:22:27.537Z,59.45
2023-05-03T04:23:27.530Z,57.33
2023-05-03T04:24:27.519Z,53.77
2023-05-03T04:25:27.537Z,61.34
2023-05-03T04:26:31.689Z,56.25
2023-05-03T04:27:28.501Z,56.88
2023-05-03T04:28:27.496Z,55.06
2023-05-03T04:29:27.483Z,50.71
2023-05-03T04:30:27.495Z,62.45
2023-05-03T04:31:27.523Z,58.65
2023-05-03T04:32:27.482Z,58.68
2023-05-03T04:33:27.462Z,60.57
2023-05-03T04:34:27.456Z,61.32
2023-05-03T04:35:27.466Z,56.29
2023-05-03T04:36:27.434Z,56.59
2023-05-03T04:37:27.418Z,56.83
2023-05-03T04:38:27.409Z,56.81
2023-05-03T04:39:27.405Z,62.37
2023-05-03T04:40:27.434Z,58.53
2023-05-03T04:41:27.391Z,55.57
2023-05-03T04:42:27.390Z,54.97
2023-05-03T04:43:27.380Z,61.45
2023-05-03T04:44:27.354Z,58.87
2023-05-03T04:45:28.423Z,56.14
2023-05-03T04:46:27.371Z,53.96
2023-05-03T04:47:27.360Z,56.05
2023-05-03T04:48:27.336Z,59.29
2023-05-03T04:49:27.336Z,57.86
2023-05-03T04:50:27.368Z,58.93
2023-05-03T04:51:27.349Z,57.00
2023-05-03T04:52:27.321Z,56.51
2023-05-03T04:53:27.299Z,57.81
2023-05-03T04:54:27.303Z,59.23
2023-05-03T04:55:27.285Z,59.04
2023-05-03T04:56:27.308Z,60.82
2023-05-03T04:57:27.275Z,59.47
2023-05-03T04:58:27.256Z,63.34
2023-05-03T04:59:27.249Z,63.81
2023-05-03T05:00:27.303Z,60.04
2023-05-03T05:01:27.264Z,60.33
2023-05-03T05:02:27.379Z,59.37
2023-05-03T05:03:27.302Z,60.04
2023-05-03T05:04:27.206Z,61.81
2023-05-03T05:05:27.233Z,60.45
2023-05-03T05:06:27.236Z,59.81
2023-05-03T05:07:27.186Z,61.01
2023-05-03T05:08:27.216Z,60.97
2023-05-03T05:09:27.180Z,60.18
2023-05-03T05:10:27.195Z,60.83
2023-05-03T05:11:27.175Z,61.12
2023-05-03T05:12:27.150Z,60.50
2023-05-03T05:13:27.152Z,60.96
2023-05-03T05:14:27.151Z,60.90
2023-05-03T05:15:27.151Z,61.09
2023-05-03T05:16:27.137Z,60.31
2023-05-03T05:17:27.188Z,60.77
2023-05-03T05:18:27.130Z,61.01
2023-05-03T05:19:27.098Z,62.61
2023-05-03T05:20:27.151Z,61.26
2023-05-03T05:21:27.082Z,60.28
2023-05-03T05:22:27.078Z,60.62
2023-05-03T05:23:27.077Z,60.33
2023-05-03T05:24:27.073Z,60.02
2023-05-03T05:25:27.074Z,58.71
2023-05-03T05:26:27.051Z,58.97
2023-05-03T05:27:27.150Z,54.73
2023-05-03T05:28:27.062Z,55.88
2023-05-03T05:29:27.029Z,58.81
2023-05-03T05:30:27.052Z,56.09
2023-05-03T05:31:27.041Z,57.43
2023-05-03T05:32:27.014Z,55.55
2023-05-03T05:33:27.071Z,54.00
2023-05-03T05:34:27.107Z,55.11
2023-05-03T05:35:59.162Z,58.28
2023-05-03T05:36:26.974Z,60.13
2023-05-03T05:37:26.965Z,57.55
2023-05-03T05:38:26.955Z,56.96
2023-05-03T05:39:26.950Z,56.12
2023-05-03T05:40:26.949Z,55.07
2023-05-03T05:41:26.990Z,54.75
2023-05-03T05:42:26.936Z,54.34
2023-05-03T05:43:26.920Z,58.69
2023-05-03T05:44:26.909Z,55.93
2023-05-03T05:45:26.915Z,54.82
2023-05-03T05:46:26.957Z,56.28
2023-05-03T05:47:26.917Z,60.76
2023-05-03T05:48:26.891Z,60.10
2023-05-03T05:49:27.308Z,56.69
2023-05-03T05:50:26.881Z,55.67
2023-05-03T05:51:26.903Z,58.29
2023-05-03T05:52:26.863Z,59.61
2023-05-03T05:53:26.843Z,52.71
2023-05-03T05:54:28.063Z,54.31
2023-05-03T05:55:26.835Z,54.95
2023-05-03T05:56:26.847Z,60.43
2023-05-03T05:57:26.812Z,56.05
2023-05-03T05:58:26.806Z,53.91
2023-05-03T05:59:26.837Z,56.68
2023-05-03T06:00:26.799Z,57.15
2023-05-03T06:01:26.815Z,57.19
2023-05-03T06:02:26.842Z,52.99
2023-05-03T06:03:26.781Z,58.96
2023-05-03T06:04:26.848Z,53.95
2023-05-03T06:05:26.774Z,56.02
2023-05-03T06:06:26.795Z,57.31
2023-05-03T06:07:26.739Z,55.76
2023-05-03T06:08:26.737Z,56.82
2023-05-03T06:09:26.733Z,55.93
2023-05-03T06:10:26.801Z,56.10
2023-05-03T06:11:27.395Z,55.20
2023-05-03T06:12:26.700Z,58.75
2023-05-03T06:13:26.687Z,57.62
2023-05-03T06:14:26.686Z,55.39
2023-05-03T06:15:26.791Z,56.56
2023-05-03T06:16:26.751Z,54.81
2023-05-03T06:17:26.655Z,57.83
2023-05-03T06:18:27.700Z,56.14
2023-05-03T06:19:26.660Z,55.46
2023-05-03T06:20:26.648Z,52.56
2023-05-03T06:21:26.668Z,55.96
2023-05-03T06:22:26.708Z,58.99
2023-05-03T06:23:26.617Z,59.02
2023-05-03T06:24:26.631Z,58.10
2023-05-03T06:25:26.598Z,58.77
2023-05-03T06:26:26.618Z,58.19
2023-05-03T06:27:26.620Z,56.87
2023-05-03T06:28:26.590Z,57.38
2023-05-03T06:29:26.567Z,57.98
2023-05-03T06:30:26.586Z,55.82
2023-05-03T06:31:27.382Z,56.66
2023-05-03T06:32:26.599Z,59.63
2023-05-03T06:33:26.557Z,53.99
2023-05-03T06:34:26.544Z,58.15
2023-05-03T06:35:26.535Z,57.04
2023-05-03T06:36:26.553Z,57.00
2023-05-03T06:37:26.533Z,59.71
2023-05-03T06:38:26.511Z,58.09
2023-05-03T06:39:26.500Z,57.60
2023-05-03T06:40:26.515Z,56.32
2023-05-03T06:41:26.515Z,59.73
2023-05-03T06:42:26.485Z,57.52
2023-05-03T06:43:26.474Z,60.07
2023-05-03T06:44:26.472Z,54.26
2023-05-03T06:45:26.460Z,61.33
2023-05-03T06:46:26.514Z,58.70
2023-05-03T06:47:26.485Z,57.40
2023-05-03T06:48:26.514Z,60.29
2023-05-03T06:49:26.430Z,57.16
2023-05-03T06:50:26.411Z,59.12
2023-05-03T06:51:26.470Z,59.56
2023-05-03T06:52:26.397Z,56.06
2023-05-03T06:53:27.407Z,57.13
2023-05-03T06:54:26.424Z,55.34
2023-05-03T06:55:26.378Z,61.10
2023-05-03T06:56:26.399Z,58.38
2023-05-03T06:57:27.574Z,57.08
2023-05-03T06:58:26.361Z,57.96
2023-05-03T06:59:26.342Z,56.87
2023-05-03T07:00:26.351Z,54.46
2023-05-03T07:01:26.383Z,60.01
2023-05-03T07:02:26.391Z,60.34
2023-05-03T07:03:26.367Z,57.81
2023-05-03T07:04:26.315Z,59.63
2023-05-03T07:05:26.295Z,58.09
2023-05-03T07:06:26.342Z,56.91
2023-05-03T07:07:26.299Z,55.15
2023-05-03T07:08:26.299Z,59.03
2023-05-03T07:09:41.509Z,53.26
2023-05-03T07:10:30.199Z,58.96
2023-05-03T07:11:26.277Z,58.28
2023-05-03T07:12:26.243Z,58.79
2023-05-03T07:13:26.251Z,56.02
2023-05-03T07:14:26.232Z,54.51
2023-05-03T07:15:26.222Z,53.68
2023-05-03T07:16:26.283Z,56.90
2023-05-03T07:17:26.272Z,58.16
2023-05-03T07:18:26.218Z,57.67
2023-05-03T07:19:26.208Z,60.40
2023-05-03T07:20:26.240Z,57.69
2023-05-03T07:21:26.221Z,58.49
2023-05-03T07:22:26.169Z,59.78
2023-05-03T07:23:26.163Z,63.39
2023-05-03T07:24:26.223Z,59.48
2023-05-03T07:25:26.242Z,53.82
2023-05-03T07:26:26.144Z,61.15
2023-05-03T07:27:26.156Z,57.04
2023-05-03T07:28:26.140Z,56.26
2023-05-03T07:29:26.130Z,60.03
2023-05-03T07:30:26.133Z,58.35
2023-05-03T07:31:26.100Z,55.61
2023-05-03T07:32:26.188Z,55.17
2023-05-03T07:33:26.134Z,58.99
2023-05-03T07:34:26.094Z,55.46
2023-05-03T07:35:26.069Z,57.93
2023-05-03T07:36:26.068Z,56.28
2023-05-03T07:37:26.092Z,56.82
2023-05-03T07:38:26.040Z,57.72
2023-05-03T07:39:26.050Z,58.89
2023-05-03T07:40:26.067Z,58.20
2023-05-03T07:41:26.033Z,59.86
2023-05-03T07:42:26.060Z,60.37
2023-05-03T07:43:26.004Z,57.49
2023-05-03T07:44:26.003Z,57.93
2023-05-03T07:45:26.032Z,59.11
2023-05-03T07:46:26.184Z,56.92
2023-05-03T07:47:26.080Z,55.73
2023-05-03T07:48:25.975Z,56.44
2023-05-03T07:49:25.961Z,59.32
2023-05-03T07:50:25.950Z,55.94
2023-05-03T07:51:25.948Z,58.00
2023-05-03T07:52:26.883Z,56.93
2023-05-03T07:53:25.939Z,58.79
2023-05-03T07:54:25.919Z,57.47
2023-05-03T07:55:25.923Z,57.75
2023-05-03T07:56:25.907Z,57.63
2023-05-03T07:57:25.938Z,58.53
2023-05-03T07:58:38.837Z,59.06
2023-05-03T07:59:27.887Z,58.72
2023-05-03T08:00:25.877Z,58.22
2023-05-03T08:01:25.877Z,58.83
2023-05-03T08:02:25.991Z,58.48
2023-05-03T08:03:26.064Z,61.87
2023-05-03T08:04:26.175Z,57.09
2023-05-03T08:05:26.048Z,54.20
2023-05-03T08:06:25.872Z,58.19
2023-05-03T08:07:25.842Z,59.00
2023-05-03T08:08:25.836Z,55.59
2023-05-03T08:09:25.808Z,56.81
2023-05-03T08:10:25.799Z,63.95
2023-05-03T08:11:25.785Z,55.39
2023-05-03T08:12:25.802Z,53.57
2023-05-03T08:13:25.801Z,58.78
2023-05-03T08:14:25.791Z,57.35
2023-05-03T08:15:25.761Z,58.83
2023-05-03T08:16:25.859Z,59.58
2023-05-03T08:17:25.809Z,57.00
2023-05-03T08:18:25.752Z,56.91
2023-05-03T08:19:25.745Z,62.06
2023-05-03T08:20:25.721Z,56.25
2023-05-03T08:21:26.247Z,59.58
2023-05-03T08:22:25.734Z,54.82
2023-05-03T08:23:25.699Z,54.98
2023-05-03T08:24:25.693Z,59.53
2023-05-03T08:25:25.690Z,56.57
2023-05-03T08:26:25.681Z,57.83
2023-05-03T08:27:25.693Z,57.00
2023-05-03T08:28:25.679Z,54.67
2023-05-03T08:29:27.577Z,56.32
2023-05-03T08:30:26.660Z,57.85
2023-05-03T08:31:25.687Z,56.69
2023-05-03T08:32:25.694Z,58.16
2023-05-03T08:33:25.633Z,62.49
2023-05-03T08:34:26.611Z,57.97
2023-05-03T08:35:25.665Z,55.92
2023-05-03T08:36:25.601Z,56.72
2023-05-03T08:37:25.616Z,56.00
2023-05-03T08:38:25.585Z,51.25
2023-05-03T08:39:25.572Z,56.29
2023-05-03T08:40:25.593Z,55.14
2023-05-03T08:41:25.564Z,56.28
2023-05-03T08:42:25.943Z,57.08
2023-05-03T08:43:25.550Z,58.23
2023-05-03T08:44:25.538Z,58.15
2023-05-03T08:45:25.540Z,55.37
2023-05-03T08:46:25.575Z,57.47
2023-05-03T08:47:25.652Z,57.75
2023-05-03T08:48:26.275Z,58.29
2023-05-03T08:49:25.639Z,58.03
2023-05-03T08:50:25.570Z,57.51
2023-05-03T08:51:25.546Z,61.31
2023-05-03T08:52:25.545Z,56.35
2023-05-03T08:53:25.465Z,58.06
2023-05-03T08:54:25.499Z,57.88
2023-05-03T08:55:26.201Z,52.77
2023-05-03T08:56:25.469Z,62.26
2023-05-03T08:57:25.456Z,58.08
2023-05-03T08:58:25.486Z,63.03
2023-05-03T08:59:25.534Z,61.32
2023-05-03T09:00:25.431Z,54.90
2023-05-03T09:01:25.449Z,55.77
2023-05-03T09:02:25.492Z,58.23
2023-05-03T09:03:25.458Z,54.96
2023-05-03T09:04:25.430Z,56.02
2023-05-03T09:05:25.435Z,57.47
2023-05-03T09:06:25.394Z,55.17
2023-05-03T09:07:25.392Z,54.39
2023-05-03T09:08:25.367Z,55.98
2023-05-03T09:09:25.347Z,57.25
2023-05-03T09:10:25.344Z,57.02
2023-05-03T09:11:25.320Z,56.49
2023-05-03T09:12:25.314Z,54.56
2023-05-03T09:13:25.342Z,58.17
2023-05-03T09:14:25.294Z,55.73
2023-05-03T09:15:25.321Z,58.14
2023-05-03T09:16:25.329Z,57.74
2023-05-03T09:17:25.271Z,57.90
2023-05-03T09:18:25.289Z,55.98
2023-05-03T09:19:25.263Z,58.38
2023-05-03T09:20:25.253Z,55.19
2023-05-03T09:21:25.251Z,55.89
2023-05-03T09:22:25.235Z,58.77
2023-05-03T09:23:25.918Z,55.74
2023-05-03T09:24:25.242Z,58.16
2023-05-03T09:25:25.229Z,56.48
2023-05-03T09:26:25.276Z,54.19
2023-05-03T09:27:25.200Z,54.05
2023-05-03T09:28:25.215Z,57.45
2023-05-03T09:29:25.189Z,56.34
2023-05-03T09:30:25.169Z,56.33
2023-05-03T09:31:25.170Z,55.24
2023-05-03T09:32:25.350Z,60.26
2023-05-03T09:33:25.183Z,58.68
2023-05-03T09:34:25.144Z,55.15
2023-05-03T09:35:25.137Z,54.26
2023-05-03T09:36:25.142Z,55.75
2023-05-03T09:37:25.121Z,55.42
2023-05-03T09:38:25.447Z,57.26
2023-05-03T09:39:25.116Z,56.74
2023-05-03T09:40:25.095Z,56.35
2023-05-03T09:41:25.086Z,54.80
2023-05-03T09:42:25.090Z,56.79
2023-05-03T09:43:25.114Z,57.10
2023-05-03T09:44:25.131Z,55.36
2023-05-03T09:45:25.057Z,53.79
2023-05-03T09:46:25.194Z,56.32
2023-05-03T09:47:25.069Z,56.75
2023-05-03T09:48:25.066Z,54.20
2023-05-03T09:49:25.036Z,54.98
2023-05-03T09:50:25.049Z,55.69
2023-05-03T09:51:25.142Z,53.78
2023-05-03T09:52:25.022Z,55.68
2023-05-03T09:53:25.028Z,55.02
2023-05-03T09:54:25.696Z,56.59
2023-05-03T09:55:25.986Z,56.06
2023-05-03T09:56:24.975Z,61.34
2023-05-03T09:57:24.975Z,58.83
2023-05-03T09:58:24.992Z,55.48
2023-05-03T09:59:24.967Z,61.47
2023-05-03T10:00:24.944Z,55.35
2023-05-03T10:01:25.108Z,60.50
2023-05-03T10:02:24.968Z,55.44
2023-05-03T10:03:25.010Z,56.96
2023-05-03T10:04:25.068Z,56.09
2023-05-03T10:05:24.911Z,55.41
2023-05-03T10:06:24.959Z,57.83
2023-05-03T10:07:24.891Z,62.66
2023-05-03T10:08:24.926Z,58.46
2023-05-03T10:09:24.872Z,56.96
2023-05-03T10:10:24.871Z,53.60
2023-05-03T10:11:24.877Z,57.16
2023-05-03T10:12:24.951Z,57.37
2023-05-03T10:13:24.869Z,55.39
2023-05-03T10:14:24.860Z,60.10
2023-05-03T10:15:24.831Z,56.57
2023-05-03T10:16:24.965Z,53.04
2023-05-03T10:17:35.338Z,55.79
2023-05-03T10:18:26.864Z,57.91
2023-05-03T10:19:24.816Z,59.24
2023-05-03T10:20:24.798Z,56.81
2023-05-03T10:21:24.804Z,58.17
2023-05-03T10:22:24.783Z,60.11
2023-05-03T10:23:24.803Z,57.87
2023-05-03T10:24:24.762Z,56.55
2023-05-03T10:25:24.759Z,61.64
2023-05-03T10:26:24.744Z,54.87
2023-05-03T10:27:24.742Z,57.67
2023-05-03T10:28:24.758Z,62.29
2023-05-03T10:29:24.756Z,56.10
2023-05-03T10:30:24.749Z,55.16
2023-05-03T10:31:24.776Z,54.47
2023-05-03T10:32:24.773Z,56.40
2023-05-03T10:33:24.711Z,55.01
2023-05-03T10:34:24.735Z,58.93
2023-05-03T10:35:24.672Z,57.91
2023-05-03T10:36:26.028Z,57.19
2023-05-03T10:37:24.659Z,57.50
2023-05-03T10:38:24.749Z,57.27
2023-05-03T10:39:24.645Z,61.40
2023-05-03T10:40:24.719Z,52.25
2023-05-03T10:41:24.624Z,53.88
2023-05-03T10:42:24.684Z,54.16
2023-05-03T10:43:24.636Z,55.44
2023-05-03T10:44:24.610Z,52.57
2023-05-03T10:45:24.699Z,56.06
2023-05-03T10:46:24.601Z,55.94
2023-05-03T10:47:24.614Z,57.48
2023-05-03T10:48:24.589Z,55.96
2023-05-03T10:49:24.572Z,59.10
2023-05-03T10:50:24.551Z,58.56
2023-05-03T10:51:24.550Z,56.61
2023-05-03T10:52:24.544Z,57.45
2023-05-03T10:53:24.553Z,56.41
2023-05-03T10:54:24.527Z,55.83
2023-05-03T10:55:24.526Z,56.59
2023-05-03T10:56:24.510Z,55.27
2023-05-03T10:57:24.496Z,54.05
2023-05-03T10:58:25.264Z,58.11
2023-05-03T10:59:24.474Z,57.35
2023-05-03T11:00:24.477Z,58.40
2023-05-03T11:01:24.577Z,58.92
2023-05-03T11:02:24.515Z,59.50
2023-05-03T11:03:24.478Z,58.04
2023-05-03T11:04:24.505Z,53.33
2023-05-03T11:05:24.466Z,57.43
2023-05-03T11:06:24.468Z,57.96
2023-05-03T11:07:24.431Z,57.18
2023-05-03T11:08:24.438Z,55.88
2023-05-03T11:09:24.406Z,53.22
2023-05-03T11:10:24.413Z,55.65
2023-05-03T11:11:24.390Z,56.61
2023-05-03T11:12:24.378Z,56.59
2023-05-03T11:13:24.421Z,54.53
2023-05-03T11:14:24.368Z,59.65
2023-05-03T11:15:24.347Z,56.61
2023-05-03T11:16:24.409Z,55.33
2023-05-03T11:17:24.362Z,59.15
2023-05-03T11:18:24.370Z,53.14
2023-05-03T11:19:24.348Z,57.36
2023-05-03T11:20:24.317Z,55.75
2023-05-03T11:21:24.320Z,58.85
2023-05-03T11:22:24.306Z,58.33
2023-05-03T11:23:24.314Z,58.37
2023-05-03T11:24:24.288Z,57.33
2023-05-03T11:25:24.282Z,58.49
2023-05-03T11:26:24.476Z,58.68
2023-05-03T11:27:24.268Z,55.40
2023-05-03T11:28:24.285Z,55.02
2023-05-03T11:29:24.290Z,61.49
2023-05-03T11:30:24.393Z,55.74
2023-05-03T11:31:24.891Z,56.46
2023-05-03T11:32:24.340Z,55.11
2023-05-03T11:33:24.230Z,55.67
2023-05-03T11:34:24.202Z,54.76
2023-05-03T11:35:32.903Z,52.13
2023-05-03T11:36:24.188Z,55.32
2023-05-03T11:37:24.249Z,57.50
2023-05-03T11:38:24.232Z,57.34
2023-05-03T11:39:24.174Z,56.84
2023-05-03T11:40:24.178Z,57.17
2023-05-03T11:41:24.151Z,56.96
2023-05-03T11:42:24.148Z,58.30
2023-05-03T11:43:24.260Z,58.17
2023-05-03T11:44:24.125Z,57.71
2023-05-03T11:45:24.122Z,54.54
2023-05-03T11:46:24.213Z,49.97
2023-05-03T11:47:24.160Z,56.90
2023-05-03T11:48:24.217Z,55.62
2023-05-03T11:49:24.115Z,53.62
2023-05-03T11:50:24.079Z,55.69
2023-05-03T11:51:24.087Z,55.91
2023-05-03T11:52:24.099Z,54.54
2023-05-03T11:53:24.059Z,54.84
2023-05-03T11:54:27.066Z,55.39
2023-05-03T11:55:25.052Z,58.91
2023-05-03T11:56:24.057Z,55.52
2023-05-03T11:57:24.032Z,56.12
2023-05-03T11:58:24.019Z,56.20
2023-05-03T11:59:24.124Z,58.28
2023-05-03T12:00:24.004Z,56.94
2023-05-03T12:01:24.063Z,60.09
2023-05-03T12:02:24.147Z,59.85
2023-05-03T12:03:27.811Z,56.96
2023-05-03T12:04:26.227Z,58.24
2023-05-03T12:05:24.889Z,54.95
2023-05-03T12:06:24.209Z,56.89
2023-05-03T12:07:26.170Z,52.43
2023-05-03T12:08:25.609Z,55.95
2023-05-03T12:09:26.025Z,57.67
2023-05-03T12:10:26.506Z,56.95
2023-05-03T12:11:27.070Z,61.07
2023-05-03T12:12:27.651Z,54.09
2023-05-03T12:13:26.409Z,53.34
2023-05-03T12:14:24.039Z,55.58
2023-05-03T12:15:26.269Z,56.83
2023-05-03T12:16:24.001Z,55.28
2023-05-03T12:17:24.045Z,55.36
2023-05-03T12:18:23.997Z,57.85
2023-05-03T12:19:24.181Z,56.12
2023-05-03T12:21:30.223Z,55.47
2023-05-03T12:22:26.950Z,57.12
2023-05-03T12:23:26.579Z,55.17
2023-05-03T12:24:25.021Z,55.35
2023-05-03T12:25:26.400Z,54.61
2023-05-03T12:26:24.847Z,53.87
2023-05-03T12:27:24.126Z,57.82
2023-05-03T12:28:23.860Z,55.24
2023-05-03T12:29:24.015Z,55.95
2023-05-03T12:30:24.885Z,54.40
2023-05-03T12:31:24.005Z,54.54
2023-05-03T12:32:23.941Z,61.29
2023-05-03T12:33:23.882Z,58.66
2023-05-03T12:35:27.694Z,56.35
2023-05-03T12:36:26.223Z,55.40
2023-05-03T12:37:27.450Z,55.07
2023-05-03T12:38:25.426Z,55.75
2023-05-03T12:39:27.165Z,56.13
2023-05-03T12:40:32.463Z,57.30
2023-05-03T12:42:26.137Z,57.15
2023-05-03T12:43:23.807Z,54.41
2023-05-03T12:44:24.002Z,58.47
2023-05-03T12:45:27.480Z,55.99
2023-05-03T12:46:33.069Z,53.65
2023-05-03T12:47:28.943Z,56.43
2023-05-03T12:48:24.776Z,56.68
2023-05-03T12:49:24.077Z,56.29
2023-05-03T12:51:26.205Z,55.17
2023-05-03T12:52:36.291Z,56.98
2023-05-03T12:53:26.227Z,57.37
2023-05-03T12:55:25.639Z,56.67
2023-05-03T12:56:25.712Z,58.03
2023-05-03T12:57:24.822Z,54.51